Time;durP1;ratioP1;P1;durP2;ratioP2;P2;SDS_P1;SDS_P2;PMS_P1;PMS_P2;Temp;Humidity;BMP_temperature;BMP_pressure;BME280_temperature;BME280_humidity;BME280_pressure;Samples;Min_cycle;Max_cycle;Signal;HPM_P1;HPM_P2
2020/12/26 21:03:17;;;;;;;15.30;9.05;;;;;;;1.84;76.87;99349.58;1797563;77;22210;-60
2020/12/26 21:05:44;;;;;;;16.20;9.45;;;;;;;1.82;76.79;99353.71;1776782;80;21650;-60
2020/12/26 21:08:12;;;;;;;14.35;7.95;;;;;;;1.85;76.72;99353.86;1788884;80;21126;-60
2020/12/26 21:10:40;;;;;;;12.78;8.05;;;;;;;1.89;76.52;99358.33;1779282;80;21163;-61
2020/12/26 21:13:09;;;;;;;13.93;8.93;;;;;;;1.93;76.26;99367.88;1766733;80;21719;-60
2020/12/26 21:15:36;;;;;;;16.02;8.85;;;;;;;1.97;76.11;99359.13;1773194;80;21130;-60
2020/12/26 21:18:04;;;;;;;14.07;8.55;;;;;;;1.98;76.04;99363.41;1778102;80;21154;-60
2020/12/26 21:20:31;;;;;;;17.70;9.63;;;;;;;2.01;75.88;99357.19;1756134;82;21236;-60
2020/12/26 21:22:59;;;;;;;16.60;10.78;;;;;;;2.01;75.75;99355.55;1771228;80;21178;-59
2020/12/26 21:25:29;;;;;;;17.90;10.35;;;;;;;2.04;75.54;99358.64;1771046;80;21729;-60
2020/12/26 21:27:56;;;;;;;16.60;9.95;;;;;;;2.03;75.36;99354.33;1793314;80;21280;-59
2020/12/26 21:30:24;;;;;;;20.15;10.35;;;;;;;1.99;75.22;99374.08;1793332;80;21295;-60
2020/12/26 21:32:52;;;;;;;14.98;8.55;;;;;;;1.88;75.20;99366.77;1781580;80;21166;-60
2020/12/26 21:35:21;;;;;;;19.05;10.40;;;;;;;1.79;75.04;99369.23;1790425;80;21146;-59
2020/12/26 21:37:49;;;;;;;20.15;10.15;;;;;;;1.69;75.20;99367.87;1793219;80;21153;-59
2020/12/26 21:40:17;;;;;;;19.50;10.60;;;;;;;1.59;75.29;99369.45;1786404;80;21094;-60
2020/12/26 21:42:45;;;;;;;20.82;9.63;;;;;;;1.52;75.37;99377.14;1781280;80;21160;-60
2020/12/26 21:45:14;;;;;;;15.18;8.65;;;;;;;1.42;75.32;99372.36;1788742;79;21283;-59
2020/12/26 21:47:41;;;;;;;18.73;9.75;;;;;;;1.35;75.29;99376.26;1781553;80;21316;-60
2020/12/26 21:50:09;;;;;;;16.17;8.90;;;;;;;1.30;75.38;99377.67;1793578;80;21311;-60
2020/12/26 21:52:36;;;;;;;15.18;7.80;;;;;;;1.24;75.41;99370.97;1773120;80;21727;-60
2020/12/26 21:55:05;;;;;;;14.75;7.75;;;;;;;1.20;75.39;99375.43;1758807;81;21312;-60
2020/12/26 21:57:32;;;;;;;13.18;7.03;;;;;;;1.18;75.39;99378.28;1763089;81;21114;-60
2020/12/26 22:00:00;;;;;;;14.18;7.03;;;;;;;1.19;75.34;99375.80;1765450;80;21141;-60
2020/12/26 22:02:29;;;;;;;14.68;7.20;;;;;;;1.22;75.23;99378.91;1766917;80;21158;-60
2020/12/26 22:04:56;;;;;;;15.38;7.55;;;;;;;1.21;75.24;99379.70;1749644;81;21162;-60
2020/12/26 22:07:26;;;;;;;12.95;7.90;;;;;;;1.21;75.00;99382.25;1749254;81;21210;-61
2020/12/26 22:09:54;;;;;;;24.60;10.60;;;;;;;1.22;75.01;99381.45;1763383;81;21126;-60
2020/12/26 22:12:22;;;;;;;18.42;9.00;;;;;;;1.24;75.10;99385.82;1749593;81;21115;-60
2020/12/26 22:14:49;;;;;;;22.05;10.65;;;;;;;1.25;75.02;99389.27;1771905;81;21154;-60
2020/12/26 22:17:17;;;;;;;20.15;10.72;;;;;;;1.27;75.14;99396.19;1758924;81;21284;-60
2020/12/26 22:19:44;;;;;;;19.95;10.15;;;;;;;1.31;75.13;99393.40;1761026;81;21185;-60
2020/12/26 22:22:12;;;;;;;16.65;8.80;;;;;;;1.36;74.90;99396.20;1748226;81;21636;-60
2020/12/26 22:24:42;;;;;;;17.05;8.58;;;;;;;1.41;74.83;99396.05;1757481;81;21624;-60
2020/12/26 22:27:10;;;;;;;19.00;8.73;;;;;;;1.44;74.56;99393.27;1773047;80;21739;-60
2020/12/26 22:29:37;;;;;;;16.02;8.75;;;;;;;1.49;74.46;99402.02;1755201;81;21131;-61
2020/12/26 22:32:05;;;;;;;21.15;9.35;;;;;;;1.52;74.36;99404.72;1760279;81;21273;-59
2020/12/26 22:34:34;;;;;;;18.07;8.85;;;;;;;1.56;74.34;99397.27;1754289;81;21135;-60
2020/12/26 22:37:02;;;;;;;20.00;10.18;;;;;;;1.59;74.30;99399.97;1759862;81;21126;-60
2020/12/26 22:39:29;;;;;;;18.60;9.33;;;;;;;1.61;74.19;99408.16;1741614;81;21146;-60
2020/12/26 22:41:57;;;;;;;13.43;7.15;;;;;;;1.68;74.18;99409.34;1741285;81;21301;-60
2020/12/26 22:44:25;;;;;;;17.57;8.33;;;;;;;1.75;73.93;99408.88;1753336;81;21301;-61
2020/12/26 22:46:52;;;;;;;12.98;6.60;;;;;;;1.77;73.66;99411.52;1742272;81;21170;-60
2020/12/26 22:49:21;;;;;;;14.95;7.05;;;;;;;1.75;73.52;99407.61;1748090;82;21585;-60
2020/12/26 22:51:49;;;;;;;12.93;7.12;;;;;;;1.73;73.42;99415.55;1769961;81;21276;-60
2020/12/26 22:54:17;;;;;;;12.37;6.62;;;;;;;1.66;73.23;99403.33;1779146;81;21110;-60
2020/12/26 22:56:44;;;;;;;13.15;6.53;;;;;;;1.63;73.20;99408.23;1763871;81;21146;-60
2020/12/26 22:59:12;;;;;;;12.55;6.92;;;;;;;1.58;73.17;99414.73;1777315;81;21239;-60
2020/12/26 23:01:39;;;;;;;15.58;8.13;;;;;;;1.49;73.31;99410.91;1750214;80;21293;-60
2020/12/26 23:04:07;;;;;;;12.35;7.20;;;;;;;1.40;73.51;99410.44;1771882;81;21276;-61
2020/12/26 23:06:35;;;;;;;15.23;8.00;;;;;;;1.34;73.72;99411.76;1775509;81;21276;-60
2020/12/26 23:09:03;;;;;;;13.88;7.40;;;;;;;1.28;73.92;99421.20;1760041;81;21182;-60
2020/12/26 23:11:31;;;;;;;14.50;7.97;;;;;;;1.20;74.05;99419.52;1777313;81;21268;-60
2020/12/26 23:14:00;;;;;;;12.90;7.30;;;;;;;1.15;74.31;99423.87;1773182;81;21169;-59
2020/12/26 23:16:27;;;;;;;13.10;7.67;;;;;;;1.15;74.43;99421.33;1747803;81;21228;-60
2020/12/26 23:18:55;;;;;;;15.10;8.10;;;;;;;1.16;74.59;99427.75;1758026;80;21162;-60
2020/12/26 23:21:23;;;;;;;12.70;7.60;;;;;;;1.17;74.59;99426.08;1757374;80;21364;-60
2020/12/26 23:23:50;;;;;;;11.55;7.33;;;;;;;1.17;74.67;99434.97;1759744;81;21150;-60
2020/12/26 23:26:20;;;;;;;11.93;6.85;;;;;;;1.19;74.63;99426.64;1761901;81;21324;-60
2020/12/26 23:28:48;;;;;;;13.35;7.50;;;;;;;1.21;74.53;99429.28;1740785;81;21408;-59
2020/12/26 23:31:16;;;;;;;15.45;8.05;;;;;;;1.20;74.47;99427.14;1770620;81;21280;-59
2020/12/26 23:33:44;;;;;;;13.62;8.05;;;;;;;1.26;74.43;99434.22;1771979;81;21292;-60
2020/12/26 23:36:13;;;;;;;13.03;7.87;;;;;;;1.30;74.39;99428.52;1771981;80;21099;-60
2020/12/26 23:38:42;;;;;;;15.43;8.45;;;;;;;1.33;74.40;99440.12;1770749;81;21306;-61
2020/12/26 23:41:14;;;;;;;14.13;7.87;;;;;;;1.38;74.32;99442.53;1763501;81;21138;-60
2020/12/26 23:43:42;;;;;;;13.55;7.40;;;;;;;1.40;74.23;99442.59;1771301;80;21597;-60
2020/12/26 23:46:09;;;;;;;12.63;8.05;;;;;;;1.40;74.16;99452.39;1768852;81;21162;-60
2020/12/26 23:48:39;;;;;;;12.20;7.37;;;;;;;1.38;74.09;99457.78;1758949;81;21150;-60
2020/12/26 23:51:08;;;;;;;15.60;7.97;;;;;;;1.31;74.16;99456.96;1760028;81;21561;-61
2020/12/26 23:53:37;;;;;;;18.30;7.78;;;;;;;1.25;74.24;99464.27;1771761;81;21131;-61
2020/12/26 23:56:06;;;;;;;11.90;7.55;;;;;;;1.20;74.36;99464.00;1771979;81;21325;-60
2020/12/26 23:58:34;;;;;;;16.35;8.18;;;;;;;1.18;74.42;99465.97;1764202;80;21273;-60
